sensor_id;sensor_type;location;lat;lon;timestamp;P1;durP1;ratioP1;P2;durP2;ratioP2
49444;SDS011;35323;43.080;-81.378;2023-04-06T00:00:57;4.47;;;3.78;;
49444;SDS011;35323;43.080;-81.378;2023-04-06T00:03:25;4.93;;;4.07;;
49444;SDS011;35323;43.080;-81.378;2023-04-06T00:05:53;4.80;;;4.15;;
49444;SDS011;35323;43.080;-81.378;2023-04-06T00:08:21;5.30;;;4.38;;
49444;SDS011;35323;43.080;-81.378;2023-04-06T00:10:50;5.70;;;3.70;;
49444;SDS011;35323;43.080;-81.378;2023-04-06T00:13:18;4.78;;;3.17;;
49444;SDS011;35323;43.080;-81.378;2023-04-06T00:15:45;5.85;;;3.67;;
49444;SDS011;35323;43.080;-81.378;2023-04-06T00:18:13;6.15;;;3.75;;
49444;SDS011;35323;43.080;-81.378;2023-04-06T00:20:40;4.40;;;3.90;;
49444;SDS011;35323;43.080;-81.378;2023-04-06T00:23:10;4.25;;;3.00;;
49444;SDS011;35323;43.080;-81.378;2023-04-06T00:25:38;5.05;;;3.95;;
49444;SDS011;35323;43.080;-81.378;2023-04-06T00:28:06;5.28;;;3.17;;
49444;SDS011;35323;43.080;-81.378;2023-04-06T00:30:33;4.10;;;3.60;;
49444;SDS011;35323;43.080;-81.378;2023-04-06T00:33:01;4.78;;;3.63;;
49444;SDS011;35323;43.080;-81.378;2023-04-06T00:35:28;2.70;;;2.10;;
49444;SDS011;35323;43.080;-81.378;2023-04-06T00:37:56;5.32;;;2.05;;
49444;SDS011;35323;43.080;-81.378;2023-04-06T00:40:24;2.45;;;2.25;;
49444;SDS011;35323;43.080;-81.378;2023-04-06T00:42:52;3.15;;;2.22;;
49444;SDS011;35323;43.080;-81.378;2023-04-06T00:45:19;3.03;;;2.50;;
49444;SDS011;35323;43.080;-81.378;2023-04-06T00:47:47;2.15;;;1.95;;
49444;SDS011;35323;43.080;-81.378;2023-04-06T00:50:14;2.65;;;1.52;;
49444;SDS011;35323;43.080;-81.378;2023-04-06T00:52:42;3.83;;;1.90;;
49444;SDS011;35323;43.080;-81.378;2023-04-06T00:55:10;2.95;;;1.75;;
49444;SDS011;35323;43.080;-81.378;2023-04-06T00:57:38;1.92;;;1.25;;
49444;SDS011;35323;43.080;-81.378;2023-04-06T01:00:05;2.38;;;1.58;;
49444;SDS011;35323;43.080;-81.378;2023-04-06T01:02:33;2.00;;;1.77;;
49444;SDS011;35323;43.080;-81.378;2023-04-06T01:05:01;2.08;;;1.55;;
49444;SDS011;35323;43.080;-81.378;2023-04-06T01:07:29;5.40;;;1.73;;
49444;SDS011;35323;43.080;-81.378;2023-04-06T01:09:57;1.80;;;1.70;;
49444;SDS011;35323;43.080;-81.378;2023-04-06T01:12:25;2.35;;;1.73;;
49444;SDS011;35323;43.080;-81.378;2023-04-06T01:14:53;4.05;;;1.98;;
49444;SDS011;35323;43.080;-81.378;2023-04-06T01:17:21;2.28;;;1.75;;
49444;SDS011;35323;43.080;-81.378;2023-04-06T01:19:52;2.90;;;2.13;;
49444;SDS011;35323;43.080;-81.378;2023-04-06T01:22:20;1.70;;;1.42;;
49444;SDS011;35323;43.080;-81.378;2023-04-06T01:24:48;1.10;;;1.00;;
49444;SDS011;35323;43.080;-81.378;2023-04-06T01:27:16;1.90;;;1.77;;
49444;SDS011;35323;43.080;-81.378;2023-04-06T01:29:43;2.22;;;1.30;;
49444;SDS011;35323;43.080;-81.378;2023-04-06T01:32:11;1.80;;;1.40;;
49444;SDS011;35323;43.080;-81.378;2023-04-06T01:34:39;1.70;;;1.23;;
49444;SDS011;35323;43.080;-81.378;2023-04-06T01:37:09;2.50;;;1.55;;
49444;SDS011;35323;43.080;-81.378;2023-04-06T01:39:37;2.88;;;1.63;;
49444;SDS011;35323;43.080;-81.378;2023-04-06T01:42:04;1.30;;;1.20;;
49444;SDS011;35323;43.080;-81.378;2023-04-06T01:44:32;4.25;;;1.88;;
49444;SDS011;35323;43.080;-81.378;2023-04-06T01:46:59;3.20;;;1.30;;
49444;SDS011;35323;43.080;-81.378;2023-04-06T01:49:28;3.03;;;2.42;;
49444;SDS011;35323;43.080;-81.378;2023-04-06T01:51:56;4.75;;;1.40;;
49444;SDS011;35323;43.080;-81.378;2023-04-06T01:54:23;1.58;;;1.30;;
49444;SDS011;35323;43.080;-81.378;2023-04-06T01:56:51;3.47;;;1.25;;
49444;SDS011;35323;43.080;-81.378;2023-04-06T01:59:19;2.17;;;1.90;;
49444;SDS011;35323;43.080;-81.378;2023-04-06T02:01:47;3.08;;;1.65;;
49444;SDS011;35323;43.080;-81.378;2023-04-06T02:04:14;3.45;;;2.60;;
49444;SDS011;35323;43.080;-81.378;2023-04-06T02:06:42;2.30;;;1.50;;
49444;SDS011;35323;43.080;-81.378;2023-04-06T02:09:10;2.60;;;1.63;;
49444;SDS011;35323;43.080;-81.378;2023-04-06T02:11:37;2.00;;;1.65;;
49444;SDS011;35323;43.080;-81.378;2023-04-06T02:14:05;8.85;;;1.90;;
49444;SDS011;35323;43.080;-81.378;2023-04-06T02:16:32;2.22;;;2.03;;
49444;SDS011;35323;43.080;-81.378;2023-04-06T02:19:00;2.20;;;2.00;;
49444;SDS011;35323;43.080;-81.378;2023-04-06T02:21:28;1.90;;;1.67;;
49444;SDS011;35323;43.080;-81.378;2023-04-06T02:23:55;3.75;;;1.75;;
49444;SDS011;35323;43.080;-81.378;2023-04-06T02:26:23;2.33;;;1.83;;
49444;SDS011;35323;43.080;-81.378;2023-04-06T02:28:50;3.53;;;2.88;;
49444;SDS011;35323;43.080;-81.378;2023-04-06T02:31:18;5.13;;;2.33;;
49444;SDS011;35323;43.080;-81.378;2023-04-06T02:33:45;5.93;;;2.08;;
49444;SDS011;35323;43.080;-81.378;2023-04-06T02:36:13;5.40;;;2.40;;
49444;SDS011;35323;43.080;-81.378;2023-04-06T02:38:41;2.95;;;1.52;;
49444;SDS011;35323;43.080;-81.378;2023-04-06T02:41:09;2.75;;;1.88;;
49444;SDS011;35323;43.080;-81.378;2023-04-06T02:43:37;2.88;;;1.98;;
49444;SDS011;35323;43.080;-81.378;2023-04-06T02:46:04;3.33;;;1.90;;
49444;SDS011;35323;43.080;-81.378;2023-04-06T02:48:32;3.47;;;2.22;;
49444;SDS011;35323;43.080;-81.378;2023-04-06T02:51:03;2.20;;;1.77;;
49444;SDS011;35323;43.080;-81.378;2023-04-06T02:53:30;4.72;;;1.92;;
49444;SDS011;35323;43.080;-81.378;2023-04-06T02:55:58;2.47;;;1.63;;
49444;SDS011;35323;43.080;-81.378;2023-04-06T02:58:25;3.97;;;1.85;;
49444;SDS011;35323;43.080;-81.378;2023-04-06T03:00:53;2.72;;;1.95;;
49444;SDS011;35323;43.080;-81.378;2023-04-06T03:03:21;2.65;;;2.00;;
49444;SDS011;35323;43.080;-81.378;2023-04-06T03:05:48;3.63;;;2.88;;
49444;SDS011;35323;43.080;-81.378;2023-04-06T03:08:17;2.67;;;1.52;;
49444;SDS011;35323;43.080;-81.378;2023-04-06T03:10:47;5.30;;;2.30;;
49444;SDS011;35323;43.080;-81.378;2023-04-06T03:13:15;3.33;;;2.15;;
49444;SDS011;35323;43.080;-81.378;2023-04-06T03:15:42;2.95;;;2.33;;
49444;SDS011;35323;43.080;-81.378;2023-04-06T03:18:10;3.42;;;2.17;;
49444;SDS011;35323;43.080;-81.378;2023-04-06T03:20:38;5.10;;;2.40;;
49444;SDS011;35323;43.080;-81.378;2023-04-06T03:23:05;4.72;;;2.22;;
49444;SDS011;35323;43.080;-81.378;2023-04-06T03:25:33;5.68;;;2.60;;
49444;SDS011;35323;43.080;-81.378;2023-04-06T03:28:01;3.30;;;3.00;;
49444;SDS011;35323;43.080;-81.378;2023-04-06T03:30:28;4.82;;;2.50;;
49444;SDS011;35323;43.080;-81.378;2023-04-06T03:32:56;3.67;;;2.30;;
49444;SDS011;35323;43.080;-81.378;2023-04-06T03:35:24;3.75;;;2.55;;
49444;SDS011;35323;43.080;-81.378;2023-04-06T03:37:51;7.18;;;3.45;;
49444;SDS011;35323;43.080;-81.378;2023-04-06T03:40:19;4.22;;;3.00;;
49444;SDS011;35323;43.080;-81.378;2023-04-06T03:42:47;8.18;;;2.58;;
49444;SDS011;35323;43.080;-81.378;2023-04-06T03:45:14;5.28;;;2.60;;
49444;SDS011;35323;43.080;-81.378;2023-04-06T03:47:45;4.32;;;3.05;;
49444;SDS011;35323;43.080;-81.378;2023-04-06T03:50:13;3.08;;;2.53;;
49444;SDS011;35323;43.080;-81.378;2023-04-06T03:52:41;6.93;;;2.30;;
49444;SDS011;35323;43.080;-81.378;2023-04-06T03:55:09;5.40;;;3.08;;
49444;SDS011;35323;43.080;-81.378;2023-04-06T03:57:36;5.97;;;3.65;;
49444;SDS011;35323;43.080;-81.378;2023-04-06T04:00:04;4.15;;;3.50;;
49444;SDS011;35323;43.080;-81.378;2023-04-06T04:02:32;4.13;;;2.58;;
49444;SDS011;35323;43.080;-81.378;2023-04-06T04:05:01;6.32;;;3.60;;
49444;SDS011;35323;43.080;-81.378;2023-04-06T04:07:29;6.85;;;3.80;;
49444;SDS011;35323;43.080;-81.378;2023-04-06T04:09:57;9.63;;;4.07;;
49444;SDS011;35323;43.080;-81.378;2023-04-06T04:12:25;6.05;;;4.35;;
49444;SDS011;35323;43.080;-81.378;2023-04-06T04:14:52;6.78;;;4.45;;
49444;SDS011;35323;43.080;-81.378;2023-04-06T04:17:21;7.95;;;4.53;;
49444;SDS011;35323;43.080;-81.378;2023-04-06T04:19:48;5.53;;;4.32;;
49444;SDS011;35323;43.080;-81.378;2023-04-06T04:22:16;7.70;;;4.45;;
49444;SDS011;35323;43.080;-81.378;2023-04-06T04:24:44;7.43;;;3.00;;
49444;SDS011;35323;43.080;-81.378;2023-04-06T04:27:11;6.80;;;5.68;;
49444;SDS011;35323;43.080;-81.378;2023-04-06T04:29:39;6.95;;;3.70;;
49444;SDS011;35323;43.080;-81.378;2023-04-06T04:32:06;6.20;;;4.13;;
49444;SDS011;35323;43.080;-81.378;2023-04-06T04:34:34;7.10;;;3.67;;
49444;SDS011;35323;43.080;-81.378;2023-04-06T04:37:03;5.72;;;4.07;;
49444;SDS011;35323;43.080;-81.378;2023-04-06T04:39:30;5.40;;;3.38;;
49444;SDS011;35323;43.080;-81.378;2023-04-06T04:41:58;5.40;;;3.30;;
49444;SDS011;35323;43.080;-81.378;2023-04-06T04:44:26;5.78;;;3.10;;
49444;SDS011;35323;43.080;-81.378;2023-04-06T04:46:53;2.47;;;2.28;;
49444;SDS011;35323;43.080;-81.378;2023-04-06T04:49:21;3.33;;;1.88;;
49444;SDS011;35323;43.080;-81.378;2023-04-06T04:51:49;4.53;;;2.42;;
49444;SDS011;35323;43.080;-81.378;2023-04-06T04:54:19;4.13;;;2.15;;
49444;SDS011;35323;43.080;-81.378;2023-04-06T04:56:47;3.03;;;1.48;;
49444;SDS011;35323;43.080;-81.378;2023-04-06T04:59:14;2.65;;;1.92;;
49444;SDS011;35323;43.080;-81.378;2023-04-06T05:01:42;3.28;;;1.38;;
49444;SDS011;35323;43.080;-81.378;2023-04-06T05:04:20;7.30;;;1.90;;
49444;SDS011;35323;43.080;-81.378;2023-04-06T05:06:48;1.85;;;1.48;;
49444;SDS011;35323;43.080;-81.378;2023-04-06T05:09:16;3.33;;;1.55;;
49444;SDS011;35323;43.080;-81.378;2023-04-06T05:11:44;2.20;;;1.38;;
49444;SDS011;35323;43.080;-81.378;2023-04-06T05:14:12;3.45;;;2.08;;
49444;SDS011;35323;43.080;-81.378;2023-04-06T05:16:39;5.03;;;1.48;;
49444;SDS011;35323;43.080;-81.378;2023-04-06T05:19:07;2.38;;;1.45;;
49444;SDS011;35323;43.080;-81.378;2023-04-06T05:21:35;6.25;;;2.95;;
49444;SDS011;35323;43.080;-81.378;2023-04-06T05:24:05;2.70;;;1.63;;
49444;SDS011;35323;43.080;-81.378;2023-04-06T05:26:40;1.45;;;1.08;;
49444;SDS011;35323;43.080;-81.378;2023-04-06T05:29:07;3.78;;;1.23;;
49444;SDS011;35323;43.080;-81.378;2023-04-06T05:31:35;3.65;;;1.83;;
49444;SDS011;35323;43.080;-81.378;2023-04-06T05:34:03;1.73;;;0.98;;
49444;SDS011;35323;43.080;-81.378;2023-04-06T05:36:31;1.63;;;1.20;;
49444;SDS011;35323;43.080;-81.378;2023-04-06T05:38:59;1.02;;;0.93;;
49444;SDS011;35323;43.080;-81.378;2023-04-06T05:41:26;3.35;;;1.10;;
49444;SDS011;35323;43.080;-81.378;2023-04-06T05:43:54;1.73;;;0.90;;
49444;SDS011;35323;43.080;-81.378;2023-04-06T05:46:22;1.48;;;1.13;;
49444;SDS011;35323;43.080;-81.378;2023-04-06T05:48:50;1.17;;;0.93;;
49444;SDS011;35323;43.080;-81.378;2023-04-06T05:51:17;3.45;;;1.02;;
49444;SDS011;35323;43.080;-81.378;2023-04-06T05:53:45;4.35;;;1.20;;
49444;SDS011;35323;43.080;-81.378;2023-04-06T05:56:13;3.50;;;1.35;;
49444;SDS011;35323;43.080;-81.378;2023-04-06T05:58:40;1.42;;;0.90;;
49444;SDS011;35323;43.080;-81.378;2023-04-06T06:01:08;2.47;;;1.20;;
49444;SDS011;35323;43.080;-81.378;2023-04-06T06:03:37;1.70;;;1.02;;
49444;SDS011;35323;43.080;-81.378;2023-04-06T06:06:04;1.05;;;0.98;;
49444;SDS011;35323;43.080;-81.378;2023-04-06T06:08:32;2.13;;;1.20;;
49444;SDS011;35323;43.080;-81.378;2023-04-06T06:11:00;1.58;;;1.48;;
49444;SDS011;35323;43.080;-81.378;2023-04-06T06:13:29;1.33;;;1.00;;
49444;SDS011;35323;43.080;-81.378;2023-04-06T06:15:57;5.28;;;2.15;;
49444;SDS011;35323;43.080;-81.378;2023-04-06T06:18:24;0.80;;;0.80;;
49444;SDS011;35323;43.080;-81.378;2023-04-06T06:20:52;1.20;;;1.00;;
49444;SDS011;35323;43.080;-81.378;2023-04-06T06:23:21;4.80;;;1.88;;
49444;SDS011;35323;43.080;-81.378;2023-04-06T06:25:48;1.63;;;0.98;;
49444;SDS011;35323;43.080;-81.378;2023-04-06T06:28:17;0.70;;;0.70;;
49444;SDS011;35323;43.080;-81.378;2023-04-06T06:30:44;1.02;;;1.00;;
49444;SDS011;35323;43.080;-81.378;2023-04-06T06:33:12;1.20;;;0.80;;
49444;SDS011;35323;43.080;-81.378;2023-04-06T06:35:39;2.47;;;1.10;;
49444;SDS011;35323;43.080;-81.378;2023-04-06T06:38:07;1.35;;;1.33;;
49444;SDS011;35323;43.080;-81.378;2023-04-06T06:40:35;0.70;;;0.70;;
49444;SDS011;35323;43.080;-81.378;2023-04-06T06:43:02;0.70;;;0.70;;
49444;SDS011;35323;43.080;-81.378;2023-04-06T06:45:30;0.52;;;0.52;;
49444;SDS011;35323;43.080;-81.378;2023-04-06T06:47:58;0.77;;;0.77;;
49444;SDS011;35323;43.080;-81.378;2023-04-06T06:50:26;1.17;;;0.85;;
49444;SDS011;35323;43.080;-81.378;2023-04-06T06:52:54;0.85;;;0.85;;
49444;SDS011;35323;43.080;-81.378;2023-04-06T06:55:21;1.67;;;0.45;;
49444;SDS011;35323;43.080;-81.378;2023-04-06T06:57:49;1.58;;;1.17;;
49444;SDS011;35323;43.080;-81.378;2023-04-06T07:00:17;1.55;;;0.60;;
49444;SDS011;35323;43.080;-81.378;2023-04-06T07:02:45;0.52;;;0.52;;
49444;SDS011;35323;43.080;-81.378;2023-04-06T07:05:12;1.13;;;1.00;;
49444;SDS011;35323;43.080;-81.378;2023-04-06T07:07:54;1.58;;;0.90;;
49444;SDS011;35323;43.080;-81.378;2023-04-06T07:10:22;0.60;;;0.60;;
49444;SDS011;35323;43.080;-81.378;2023-04-06T07:12:49;0.73;;;0.73;;
49444;SDS011;35323;43.080;-81.378;2023-04-06T07:15:17;0.57;;;0.57;;
49444;SDS011;35323;43.080;-81.378;2023-04-06T07:17:45;1.65;;;0.95;;
49444;SDS011;35323;43.080;-81.378;2023-04-06T07:20:12;0.70;;;0.70;;
49444;SDS011;35323;43.080;-81.378;2023-04-06T07:22:42;1.17;;;1.08;;
49444;SDS011;35323;43.080;-81.378;2023-04-06T07:25:12;1.75;;;0.70;;
49444;SDS011;35323;43.080;-81.378;2023-04-06T07:27:40;0.90;;;0.85;;
49444;SDS011;35323;43.080;-81.378;2023-04-06T07:30:08;1.95;;;1.42;;
49444;SDS011;35323;43.080;-81.378;2023-04-06T07:32:36;1.42;;;0.65;;
49444;SDS011;35323;43.080;-81.378;2023-04-06T07:35:03;0.80;;;0.80;;
49444;SDS011;35323;43.080;-81.378;2023-04-06T07:37:31;1.52;;;1.20;;
49444;SDS011;35323;43.080;-81.378;2023-04-06T07:39:59;0.93;;;0.80;;
49444;SDS011;35323;43.080;-81.378;2023-04-06T07:42:26;1.00;;;0.82;;
49444;SDS011;35323;43.080;-81.378;2023-04-06T07:44:55;0.85;;;0.70;;
49444;SDS011;35323;43.080;-81.378;2023-04-06T07:47:23;0.98;;;0.85;;
49444;SDS011;35323;43.080;-81.378;2023-04-06T07:49:51;1.63;;;0.80;;
49444;SDS011;35323;43.080;-81.378;2023-04-06T07:52:18;2.90;;;1.00;;
49444;SDS011;35323;43.080;-81.378;2023-04-06T07:54:46;0.90;;;0.80;;
49444;SDS011;35323;43.080;-81.378;2023-04-06T07:57:15;0.60;;;0.60;;
49444;SDS011;35323;43.080;-81.378;2023-04-06T07:59:43;1.55;;;1.45;;
49444;SDS011;35323;43.080;-81.378;2023-04-06T08:02:10;1.20;;;1.10;;
49444;SDS011;35323;43.080;-81.378;2023-04-06T08:04:38;1.48;;;1.08;;
49444;SDS011;35323;43.080;-81.378;2023-04-06T08:07:06;1.85;;;1.25;;
49444;SDS011;35323;43.080;-81.378;2023-04-06T08:09:33;1.20;;;1.10;;
49444;SDS011;35323;43.080;-81.378;2023-04-06T08:12:01;0.80;;;0.80;;
49444;SDS011;35323;43.080;-81.378;2023-04-06T08:14:29;1.08;;;0.80;;
49444;SDS011;35323;43.080;-81.378;2023-04-06T08:16:56;1.23;;;1.02;;
49444;SDS011;35323;43.080;-81.378;2023-04-06T08:19:24;1.38;;;1.17;;
49444;SDS011;35323;43.080;-81.378;2023-04-06T08:21:54;1.67;;;1.08;;
49444;SDS011;35323;43.080;-81.378;2023-04-06T08:24:22;2.75;;;1.63;;
49444;SDS011;35323;43.080;-81.378;2023-04-06T08:26:49;1.30;;;1.20;;
49444;SDS011;35323;43.080;-81.378;2023-04-06T08:29:18;1.98;;;1.42;;
49444;SDS011;35323;43.080;-81.378;2023-04-06T08:31:46;1.45;;;1.35;;
49444;SDS011;35323;43.080;-81.378;2023-04-06T08:34:14;1.70;;;0.95;;
49444;SDS011;35323;43.080;-81.378;2023-04-06T08:36:42;1.85;;;1.13;;
49444;SDS011;35323;43.080;-81.378;2023-04-06T08:39:09;0.90;;;0.90;;
49444;SDS011;35323;43.080;-81.378;2023-04-06T08:41:37;2.00;;;1.10;;
49444;SDS011;35323;43.080;-81.378;2023-04-06T08:44:05;2.33;;;1.70;;
49444;SDS011;35323;43.080;-81.378;2023-04-06T08:46:33;1.75;;;1.15;;
49444;SDS011;35323;43.080;-81.378;2023-04-06T08:49:01;1.30;;;1.20;;
49444;SDS011;35323;43.080;-81.378;2023-04-06T08:51:29;1.25;;;1.13;;
49444;SDS011;35323;43.080;-81.378;2023-04-06T08:54:00;0.70;;;0.70;;
49444;SDS011;35323;43.080;-81.378;2023-04-06T08:56:28;2.92;;;1.52;;
49444;SDS011;35323;43.080;-81.378;2023-04-06T08:58:55;0.80;;;0.80;;
49444;SDS011;35323;43.080;-81.378;2023-04-06T09:01:25;1.10;;;0.77;;
49444;SDS011;35323;43.080;-81.378;2023-04-06T09:03:57;1.33;;;0.95;;
49444;SDS011;35323;43.080;-81.378;2023-04-06T09:06:25;1.47;;;1.37;;
49444;SDS011;35323;43.080;-81.378;2023-04-06T09:08:54;1.15;;;1.10;;
49444;SDS011;35323;43.080;-81.378;2023-04-06T09:11:24;1.38;;;1.00;;
49444;SDS011;35323;43.080;-81.378;2023-04-06T09:13:53;2.22;;;1.70;;
49444;SDS011;35323;43.080;-81.378;2023-04-06T09:16:22;1.58;;;1.30;;
49444;SDS011;35323;43.080;-81.378;2023-04-06T09:18:50;1.08;;;0.98;;
49444;SDS011;35323;43.080;-81.378;2023-04-06T09:21:18;1.23;;;0.80;;
49444;SDS011;35323;43.080;-81.378;2023-04-06T09:24:00;2.42;;;1.52;;
49444;SDS011;35323;43.080;-81.378;2023-04-06T09:26:28;1.30;;;1.10;;
49444;SDS011;35323;43.080;-81.378;2023-04-06T09:28:57;1.70;;;1.58;;
49444;SDS011;35323;43.080;-81.378;2023-04-06T09:31:27;1.25;;;1.15;;
49444;SDS011;35323;43.080;-81.378;2023-04-06T09:33:56;1.38;;;1.27;;
49444;SDS011;35323;43.080;-81.378;2023-04-06T09:36:30;1.52;;;1.40;;
49444;SDS011;35323;43.080;-81.378;2023-04-06T09:39:01;2.40;;;2.05;;
49444;SDS011;35323;43.080;-81.378;2023-04-06T09:41:33;1.20;;;1.10;;
49444;SDS011;35323;43.080;-81.378;2023-04-06T09:44:07;0.80;;;0.80;;
49444;SDS011;35323;43.080;-81.378;2023-04-06T09:46:36;3.35;;;1.20;;
49444;SDS011;35323;43.080;-81.378;2023-04-06T09:49:24;1.35;;;1.25;;
49444;SDS011;35323;43.080;-81.378;2023-04-06T09:51:54;1.05;;;1.05;;
49444;SDS011;35323;43.080;-81.378;2023-04-06T09:54:23;1.55;;;1.00;;
49444;SDS011;35323;43.080;-81.378;2023-04-06T09:59:30;1.13;;;1.02;;
49444;SDS011;35323;43.080;-81.378;2023-04-06T10:01:58;1.63;;;1.30;;
49444;SDS011;35323;43.080;-81.378;2023-04-06T10:07:00;0.93;;;0.90;;
49444;SDS011;35323;43.080;-81.378;2023-04-06T10:09:29;1.85;;;1.75;;
49444;SDS011;35323;43.080;-81.378;2023-04-06T10:12:03;2.33;;;2.22;;
49444;SDS011;35323;43.080;-81.378;2023-04-06T10:14:34;1.95;;;1.42;;
49444;SDS011;35323;43.080;-81.378;2023-04-06T10:17:04;2.28;;;2.13;;
49444;SDS011;35323;43.080;-81.378;2023-04-06T10:19:53;1.58;;;1.45;;
49444;SDS011;35323;43.080;-81.378;2023-04-06T10:22:28;2.88;;;1.98;;
49444;SDS011;35323;43.080;-81.378;2023-04-06T10:24:57;3.03;;;2.08;;
49444;SDS011;35323;43.080;-81.378;2023-04-06T10:27:28;1.85;;;1.38;;
49444;SDS011;35323;43.080;-81.378;2023-04-06T10:30:05;1.52;;;1.20;;
49444;SDS011;35323;43.080;-81.378;2023-04-06T10:32:34;2.13;;;1.42;;
49444;SDS011;35323;43.080;-81.378;2023-04-06T10:35:09;1.60;;;1.50;;
49444;SDS011;35323;43.080;-81.378;2023-04-06T10:37:59;1.35;;;1.25;;
49444;SDS011;35323;43.080;-81.378;2023-04-06T10:40:27;3.08;;;1.90;;
49444;SDS011;35323;43.080;-81.378;2023-04-06T10:42:55;2.03;;;1.48;;
49444;SDS011;35323;43.080;-81.378;2023-04-06T10:45:24;1.52;;;1.42;;
49444;SDS011;35323;43.080;-81.378;2023-04-06T10:47:53;2.30;;;1.73;;
49444;SDS011;35323;43.080;-81.378;2023-04-06T10:50:21;2.88;;;1.83;;
49444;SDS011;35323;43.080;-81.378;2023-04-06T10:52:59;2.05;;;1.85;;
49444;SDS011;35323;43.080;-81.378;2023-04-06T10:55:27;0.80;;;0.80;;
49444;SDS011;35323;43.080;-81.378;2023-04-06T10:57:57;1.38;;;1.27;;
49444;SDS011;35323;43.080;-81.378;2023-04-06T11:00:25;3.30;;;2.05;;
49444;SDS011;35323;43.080;-81.378;2023-04-06T11:03:12;1.35;;;1.23;;
49444;SDS011;35323;43.080;-81.378;2023-04-06T11:05:47;2.85;;;1.80;;
49444;SDS011;35323;43.080;-81.378;2023-04-06T11:08:25;8.25;;;3.17;;
49444;SDS011;35323;43.080;-81.378;2023-04-06T11:11:03;2.67;;;1.52;;
49444;SDS011;35323;43.080;-81.378;2023-04-06T11:13:41;3.13;;;1.58;;
49444;SDS011;35323;43.080;-81.378;2023-04-06T11:16:45;2.67;;;2.15;;
49444;SDS011;35323;43.080;-81.378;2023-04-06T11:19:04;4.03;;;2.17;;
49444;SDS011;35323;43.080;-81.378;2023-04-06T11:21:40;10.57;;;3.92;;
49444;SDS011;35323;43.080;-81.378;2023-04-06T11:24:14;1.75;;;1.65;;
49444;SDS011;35323;43.080;-81.378;2023-04-06T11:26:46;2.72;;;1.92;;
49444;SDS011;35323;43.080;-81.378;2023-04-06T11:29:16;1.58;;;1.48;;
49444;SDS011;35323;43.080;-81.378;2023-04-06T11:31:51;2.08;;;1.55;;
49444;SDS011;35323;43.080;-81.378;2023-04-06T11:34:23;2.75;;;2.17;;
49444;SDS011;35323;43.080;-81.378;2023-04-06T11:36:54;4.82;;;2.28;;
49444;SDS011;35323;43.080;-81.378;2023-04-06T11:39:24;7.53;;;1.05;;
49444;SDS011;35323;43.080;-81.378;2023-04-06T11:41:53;1.92;;;1.65;;
49444;SDS011;35323;43.080;-81.378;2023-04-06T11:44:34;1.88;;;1.30;;
49444;SDS011;35323;43.080;-81.378;2023-04-06T11:47:04;1.92;;;1.75;;
49444;SDS011;35323;43.080;-81.378;2023-04-06T11:49:38;1.40;;;1.30;;
49444;SDS011;35323;43.080;-81.378;2023-04-06T11:52:23;3.67;;;2.10;;
49444;SDS011;35323;43.080;-81.378;2023-04-06T11:54:51;1.55;;;1.38;;
49444;SDS011;35323;43.080;-81.378;2023-04-06T11:57:20;2.00;;;1.88;;
49444;SDS011;35323;43.080;-81.378;2023-04-06T11:59:48;12.82;;;4.20;;
49444;SDS011;35323;43.080;-81.378;2023-04-06T12:02:18;2.05;;;1.13;;
49444;SDS011;35323;43.080;-81.378;2023-04-06T12:04:46;2.13;;;1.77;;
49444;SDS011;35323;43.080;-81.378;2023-04-06T12:07:14;1.33;;;1.23;;
49444;SDS011;35323;43.080;-81.378;2023-04-06T12:09:42;1.35;;;1.10;;
49444;SDS011;35323;43.080;-81.378;2023-04-06T12:12:10;1.63;;;1.23;;
49444;SDS011;35323;43.080;-81.378;2023-04-06T12:14:37;3.22;;;1.30;;
49444;SDS011;35323;43.080;-81.378;2023-04-06T12:17:06;3.83;;;2.17;;
49444;SDS011;35323;43.080;-81.378;2023-04-06T12:19:33;1.88;;;1.27;;
49444;SDS011;35323;43.080;-81.378;2023-04-06T12:22:02;2.47;;;1.70;;
49444;SDS011;35323;43.080;-81.378;2023-04-06T12:24:30;1.60;;;1.35;;
49444;SDS011;35323;43.080;-81.378;2023-04-06T12:26:57;4.20;;;1.85;;
49444;SDS011;35323;43.080;-81.378;2023-04-06T12:29:35;1.40;;;1.20;;
49444;SDS011;35323;43.080;-81.378;2023-04-06T12:32:03;4.60;;;2.00;;
49444;SDS011;35323;43.080;-81.378;2023-04-06T12:34:30;2.00;;;1.10;;
49444;SDS011;35323;43.080;-81.378;2023-04-06T12:36:58;1.35;;;1.25;;
49444;SDS011;35323;43.080;-81.378;2023-04-06T12:39:27;2.53;;;1.55;;
49444;SDS011;35323;43.080;-81.378;2023-04-06T12:41:54;2.22;;;2.00;;
49444;SDS011;35323;43.080;-81.378;2023-04-06T12:44:23;4.00;;;2.03;;
49444;SDS011;35323;43.080;-81.378;2023-04-06T12:46:52;1.98;;;1.08;;
49444;SDS011;35323;43.080;-81.378;2023-04-06T12:49:20;1.15;;;1.00;;
49444;SDS011;35323;43.080;-81.378;2023-04-06T12:51:48;2.50;;;1.60;;
49444;SDS011;35323;43.080;-81.378;2023-04-06T12:54:17;1.25;;;1.17;;
49444;SDS011;35323;43.080;-81.378;2023-04-06T12:56:44;1.73;;;1.27;;
49444;SDS011;35323;43.080;-81.378;2023-04-06T12:59:12;5.68;;;1.73;;
49444;SDS011;35323;43.080;-81.378;2023-04-06T13:01:40;1.25;;;1.15;;
49444;SDS011;35323;43.080;-81.378;2023-04-06T13:04:08;3.65;;;3.20;;
49444;SDS011;35323;43.080;-81.378;2023-04-06T13:06:35;2.83;;;1.20;;
49444;SDS011;35323;43.080;-81.378;2023-04-06T13:09:06;2.13;;;1.23;;
49444;SDS011;35323;43.080;-81.378;2023-04-06T13:11:34;2.50;;;1.48;;
49444;SDS011;35323;43.080;-81.378;2023-04-06T13:14:02;3.22;;;2.67;;
49444;SDS011;35323;43.080;-81.378;2023-04-06T13:16:30;4.13;;;2.70;;
49444;SDS011;35323;43.080;-81.378;2023-04-06T13:19:00;2.90;;;1.50;;
49444;SDS011;35323;43.080;-81.378;2023-04-06T13:21:28;1.33;;;1.20;;
49444;SDS011;35323;43.080;-81.378;2023-04-06T13:23:56;1.33;;;1.23;;
49444;SDS011;35323;43.080;-81.378;2023-04-06T13:26:24;1.25;;;1.13;;
49444;SDS011;35323;43.080;-81.378;2023-04-06T13:28:54;4.50;;;1.58;;
49444;SDS011;35323;43.080;-81.378;2023-04-06T13:31:23;3.03;;;1.20;;
49444;SDS011;35323;43.080;-81.378;2023-04-06T13:33:51;2.70;;;1.30;;
49444;SDS011;35323;43.080;-81.378;2023-04-06T13:36:19;2.58;;;0.98;;
49444;SDS011;35323;43.080;-81.378;2023-04-06T13:38:46;1.92;;;1.48;;
49444;SDS011;35323;43.080;-81.378;2023-04-06T13:41:20;2.38;;;2.03;;
49444;SDS011;35323;43.080;-81.378;2023-04-06T13:43:48;1.73;;;1.63;;
49444;SDS011;35323;43.080;-81.378;2023-04-06T13:46:16;2.58;;;1.98;;
49444;SDS011;35323;43.080;-81.378;2023-04-06T13:48:44;2.42;;;1.17;;
49444;SDS011;35323;43.080;-81.378;2023-04-06T13:51:13;2.90;;;1.80;;
49444;SDS011;35323;43.080;-81.378;2023-04-06T13:53:40;1.40;;;1.30;;
49444;SDS011;35323;43.080;-81.378;2023-04-06T13:56:08;2.53;;;1.48;;
49444;SDS011;35323;43.080;-81.378;2023-04-06T13:58:38;12.07;;;2.72;;
49444;SDS011;35323;43.080;-81.378;2023-04-06T14:01:07;2.22;;;2.03;;
49444;SDS011;35323;43.080;-81.378;2023-04-06T14:03:37;4.97;;;2.35;;
49444;SDS011;35323;43.080;-81.378;2023-04-06T14:06:12;2.85;;;1.55;;
49444;SDS011;35323;43.080;-81.378;2023-04-06T14:08:43;2.42;;;1.67;;
49444;SDS011;35323;43.080;-81.378;2023-04-06T14:11:11;3.38;;;2.10;;
49444;SDS011;35323;43.080;-81.378;2023-04-06T14:13:39;2.78;;;1.60;;
49444;SDS011;35323;43.080;-81.378;2023-04-06T14:16:07;1.98;;;1.65;;
49444;SDS011;35323;43.080;-81.378;2023-04-06T14:18:37;2.47;;;2.28;;
49444;SDS011;35323;43.080;-81.378;2023-04-06T14:21:05;1.80;;;1.33;;
49444;SDS011;35323;43.080;-81.378;2023-04-06T14:23:33;4.35;;;1.90;;
49444;SDS011;35323;43.080;-81.378;2023-04-06T14:26:06;3.35;;;2.63;;
49444;SDS011;35323;43.080;-81.378;2023-04-06T14:28:33;5.43;;;2.80;;
49444;SDS011;35323;43.080;-81.378;2023-04-06T14:31:02;3.63;;;2.45;;
49444;SDS011;35323;43.080;-81.378;2023-04-06T14:33:36;3.42;;;1.73;;
49444;SDS011;35323;43.080;-81.378;2023-04-06T14:36:04;2.30;;;1.92;;